Time;durP1;ratioP1;P1;durP2;ratioP2;P2;SDS_P1;SDS_P2;PMS_P1;PMS_P2;Temp;Humidity;BMP_temperature;BMP_pressure;BME280_temperature;BME280_humidity;BME280_pressure;Samples;Min_cycle;Max_cycle;Signal;HPM_P1;HPM_P2
2022/06/11 00:01:28;;;;;;;2.45;1.20;;;;;;;;;;7398332;19;20011;-81
2022/06/11 00:03:58;;;;;;;0.93;0.82;;;;;;;;;;7400068;19;20018;-81
2022/06/11 00:06:26;;;;;;;2.35;1.00;;;;;;;;;;7402364;19;20019;-82
2022/06/11 00:08:52;;;;;;;9.63;1.40;;;;;;;;;;7398479;19;20334;-82
2022/06/11 00:11:18;;;;;;;1.40;1.10;;;;;;;;;;7400296;19;20011;-82
2022/06/11 00:13:43;;;;;;;11.20;1.30;;;;;;;;;;7397163;19;20007;-82
2022/06/11 00:16:11;;;;;;;4.57;1.30;;;;;;;;;;7401093;19;20010;-81
2022/06/11 00:18:40;;;;;;;1.20;1.10;;;;;;;;;;7397922;19;20025;-82
2022/06/11 00:21:05;;;;;;;3.80;1.13;;;;;;;;;;7397572;19;20050;-82
2022/06/11 00:23:31;;;;;;;1.88;1.02;;;;;;;;;;7396952;19;19994;-81
2022/06/11 00:25:56;;;;;;;1.55;1.05;;;;;;;;;;7399846;19;20006;-81
2022/06/11 00:28:21;;;;;;;1.27;1.10;;;;;;;;;;7399791;19;19995;-81
2022/06/11 00:30:47;;;;;;;4.20;1.50;;;;;;;;;;7396129;19;20023;-81
2022/06/11 00:33:14;;;;;;;1.70;0.80;;;;;;;;;;7399898;19;20098;-81
2022/06/11 00:35:41;;;;;;;0.80;0.70;;;;;;;;;;7398788;19;20017;-83
2022/06/11 00:38:07;;;;;;;1.23;1.00;;;;;;;;;;7399673;19;19998;-82
2022/06/11 00:40:35;;;;;;;1.10;1.00;;;;;;;;;;7397660;19;20011;-82
2022/06/11 00:43:02;;;;;;;1.42;1.02;;;;;;;;;;7398624;19;20023;-80
2022/06/11 00:45:38;;;;;;;1.70;1.38;;;;;;;;;;7396068;19;20010;-81
2022/06/11 00:48:13;;;;;;;1.85;1.35;;;;;;;;;;7397441;19;20006;-80
2022/06/11 00:50:43;;;;;;;2.55;1.00;;;;;;;;;;7393897;19;20027;-84
2022/06/11 00:53:18;;;;;;;2.85;1.45;;;;;;;;;;7398251;19;20007;-83
2022/06/11 00:55:46;;;;;;;2.83;1.00;;;;;;;;;;7396257;19;20489;-84
2022/06/11 00:58:22;;;;;;;1.35;1.13;;;;;;;;;;7394804;19;20031;-84
2022/06/11 01:00:52;;;;;;;1.52;1.15;;;;;;;;;;7396030;19;20094;-83
2022/06/11 01:03:25;;;;;;;1.75;1.02;;;;;;;;;;7395558;19;20342;-83
2022/06/11 01:06:16;;;;;;;6.28;1.73;;;;;;;;;;7395266;19;20401;-84
2022/06/11 01:09:02;;;;;;;1.15;0.95;;;;;;;;;;7395097;19;20412;-83
2022/06/11 01:11:55;;;;;;;1.13;1.02;;;;;;;;;;7393062;19;20013;-83
2022/06/11 01:14:40;;;;;;;2.80;0.98;;;;;;;;;;7392712;19;20054;-85
2022/06/11 01:17:06;;;;;;;4.30;1.43;;;;;;;;;;7393597;19;20369;-83
2022/06/11 01:19:56;;;;;;;2.78;1.30;;;;;;;;;;7386961;19;20003;-84
2022/06/11 01:22:38;;;;;;;1.58;1.05;;;;;;;;;;7395301;19;20038;-83
2022/06/11 01:25:07;;;;;;;1.67;1.30;;;;;;;;;;7390426;19;19998;-84
2022/06/11 01:27:59;;;;;;;2.65;1.23;;;;;;;;;;7393947;19;20039;-82
2022/06/11 01:30:28;;;;;;;2.08;1.30;;;;;;;;;;7389797;19;20509;-82
2022/06/11 01:33:00;;;;;;;3.88;1.70;;;;;;;;;;7391522;19;20006;-83
2022/06/11 01:35:33;;;;;;;1.30;1.00;;;;;;;;;;7394071;19;20457;-84
2022/06/11 01:38:14;;;;;;;3.25;1.20;;;;;;;;;;7392476;19;20074;-84
2022/06/11 01:40:56;;;;;;;1.50;0.90;;;;;;;;;;7392880;19;20006;-84
2022/06/11 01:43:33;;;;;;;1.00;0.90;;;;;;;;;;7390310;19;20010;-84
2022/06/11 01:46:01;;;;;;;4.90;0.90;;;;;;;;;;7392336;19;20034;-84
2022/06/11 01:48:28;;;;;;;1.20;1.08;;;;;;;;;;7392353;19;20113;-83
2022/06/11 01:51:27;;;;;;;1.35;0.80;;;;;;;;;;7391182;19;20081;-83
2022/06/11 01:54:04;;;;;;;1.80;0.90;;;;;;;;;;7389865;19;20022;-84
2022/06/11 01:56:44;;;;;;;1.38;1.02;;;;;;;;;;7392546;19;20350;-82
2022/06/11 01:59:39;;;;;;;1.17;1.00;;;;;;;;;;7390152;19;20020;-83
2022/06/11 02:02:22;;;;;;;1.08;0.80;;;;;;;;;;7391820;19;20002;-84
2022/06/11 02:04:52;;;;;;;1.15;0.80;;;;;;;;;;7389902;19;20003;-83
2022/06/11 02:07:34;;;;;;;1.23;1.10;;;;;;;;;;7386447;19;20028;-83
2022/06/11 02:10:25;;;;;;;1.33;0.80;;;;;;;;;;7388950;19;20083;-83
2022/06/11 02:13:14;;;;;;;2.45;1.00;;;;;;;;;;7388671;19;20014;-83
2022/06/11 02:15:56;;;;;;;5.22;1.40;;;;;;;;;;7388436;19;20453;-83
2022/06/11 02:18:24;;;;;;;1.02;1.00;;;;;;;;;;7388478;19;20520;-83
2022/06/11 02:20:56;;;;;;;1.83;0.90;;;;;;;;;;7387316;19;20465;-83
2022/06/11 02:23:32;;;;;;;4.80;1.30;;;;;;;;;;7392355;19;20014;-83
2022/06/11 02:26:02;;;;;;;1.80;1.30;;;;;;;;;;7389029;19;20003;-83
2022/06/11 02:28:32;;;;;;;3.22;1.38;;;;;;;;;;7392326;19;20395;-83
2022/06/11 02:31:03;;;;;;;3.63;1.33;;;;;;;;;;7388611;19;20044;-84
2022/06/11 02:33:31;;;;;;;1.27;1.17;;;;;;;;;;7393122;19;20006;-83
2022/06/11 02:36:01;;;;;;;2.03;1.00;;;;;;;;;;7386992;19;20058;-83
2022/06/11 02:38:28;;;;;;;1.55;1.05;;;;;;;;;;7390939;19;19991;-83
2022/06/11 02:41:02;;;;;;;2.15;1.30;;;;;;;;;;7388833;19;20014;-83
2022/06/11 02:43:27;;;;;;;1.30;1.20;;;;;;;;;;7391301;19;20018;-83
2022/06/11 02:45:53;;;;;;;1.33;0.98;;;;;;;;;;7387308;19;20477;-83
2022/06/11 02:48:20;;;;;;;1.20;1.10;;;;;;;;;;7387541;19;20340;-83
2022/06/11 02:50:49;;;;;;;1.40;1.27;;;;;;;;;;7389594;19;20014;-83
2022/06/11 02:53:15;;;;;;;1.50;1.40;;;;;;;;;;7392139;19;20033;-83
2022/06/11 02:55:42;;;;;;;2.75;1.10;;;;;;;;;;7384529;19;20007;-84
2022/06/11 02:58:10;;;;;;;2.85;1.35;;;;;;;;;;7389658;19;19990;-83
2022/06/11 03:00:40;;;;;;;6.18;1.23;;;;;;;;;;7390070;19;20034;-83
2022/06/11 03:03:07;;;;;;;3.15;1.38;;;;;;;;;;7390096;19;19998;-84
2022/06/11 03:05:34;;;;;;;0.98;0.90;;;;;;;;;;7388043;19;20402;-84
2022/06/11 03:08:01;;;;;;;2.28;1.30;;;;;;;;;;7385688;19;20481;-83
2022/06/11 03:10:28;;;;;;;2.20;1.65;;;;;;;;;;7388024;19;20002;-83
2022/06/11 03:12:54;;;;;;;2.20;1.15;;;;;;;;;;7387463;19;20007;-84
2022/06/11 03:15:21;;;;;;;2.10;1.42;;;;;;;;;;7389618;19;20006;-83
2022/06/11 03:17:48;;;;;;;0.98;0.90;;;;;;;;;;7385732;19;20086;-84
2022/06/11 03:20:16;;;;;;;3.45;1.17;;;;;;;;;;7392479;19;20002;-83
2022/06/11 03:22:42;;;;;;;1.80;1.25;;;;;;;;;;7394966;19;19995;-84
2022/06/11 03:25:08;;;;;;;1.67;1.30;;;;;;;;;;7394244;19;20006;-85
2022/06/11 03:27:35;;;;;;;4.75;1.67;;;;;;;;;;7395993;19;20345;-86
2022/06/11 03:30:00;;;;;;;4.38;1.38;;;;;;;;;;7394431;19;20011;-83
2022/06/11 03:32:26;;;;;;;1.63;1.30;;;;;;;;;;7398504;19;20463;-83
2022/06/11 03:34:51;;;;;;;4.18;1.60;;;;;;;;;;7394698;19;20001;-83
2022/06/11 03:37:18;;;;;;;1.30;1.20;;;;;;;;;;7394783;19;19998;-83
2022/06/11 03:39:44;;;;;;;3.40;1.38;;;;;;;;;;7390709;19;20018;-83
2022/06/11 03:42:10;;;;;;;2.40;1.50;;;;;;;;;;7395932;19;20048;-83
2022/06/11 03:44:36;;;;;;;1.98;1.17;;;;;;;;;;7394981;19;20019;-83
2022/06/11 03:47:03;;;;;;;2.65;1.55;;;;;;;;;;7397362;19;19998;-83
2022/06/11 03:49:28;;;;;;;1.88;1.60;;;;;;;;;;7389493;19;20359;-83
2022/06/11 03:51:54;;;;;;;1.48;1.30;;;;;;;;;;7395421;19;20010;-83
2022/06/11 03:54:20;;;;;;;1.38;1.27;;;;;;;;;;7397292;19;20013;-83
2022/06/11 03:56:48;;;;;;;2.35;1.73;;;;;;;;;;7397143;19;19995;-83
2022/06/11 03:59:14;;;;;;;2.95;1.58;;;;;;;;;;7394766;19;20002;-83
2022/06/11 04:01:40;;;;;;;1.52;1.13;;;;;;;;;;7395124;19;20039;-83
2022/06/11 04:04:09;;;;;;;2.45;1.40;;;;;;;;;;7393983;19;20006;-83
2022/06/11 04:06:48;;;;;;;1.55;1.25;;;;;;;;;;7396512;19;20107;-84
2022/06/11 04:09:22;;;;;;;1.63;1.25;;;;;;;;;;7390667;19;20457;-83
2022/06/11 04:11:47;;;;;;;3.50;1.30;;;;;;;;;;7395876;19;20006;-83
2022/06/11 04:14:13;;;;;;;3.30;1.38;;;;;;;;;;7393484;19;20014;-85
2022/06/11 04:16:46;;;;;;;2.85;1.50;;;;;;;;;;7393882;19;20418;-83
2022/06/11 04:19:18;;;;;;;3.85;1.50;;;;;;;;;;7396024;19;19995;-83
2022/06/11 04:21:44;;;;;;;2.13;1.45;;;;;;;;;;7394129;19;20010;-83
2022/06/11 04:24:10;;;;;;;1.33;1.20;;;;;;;;;;7396791;19;20010;-84
2022/06/11 04:26:40;;;;;;;1.40;1.27;;;;;;;;;;7392923;19;20003;-83
2022/06/11 04:29:10;;;;;;;3.72;1.50;;;;;;;;;;7394368;19;20014;-83
2022/06/11 04:31:36;;;;;;;2.60;1.73;;;;;;;;;;7392987;19;20078;-84
2022/06/11 04:34:01;;;;;;;1.55;1.40;;;;;;;;;;7394699;19;20549;-84
2022/06/11 04:36:30;;;;;;;2.80;1.73;;;;;;;;;;7391277;19;19999;-83
2022/06/11 04:38:55;;;;;;;2.33;1.85;;;;;;;;;;7391914;19;20804;-83
2022/06/11 04:41:22;;;;;;;2.97;1.38;;;;;;;;;;7392063;19;20007;-84
2022/06/11 04:43:48;;;;;;;4.18;2.30;;;;;;;;;;7390999;19;20012;-84
2022/06/11 04:46:14;;;;;;;3.17;2.08;;;;;;;;;;7393090;19;19991;-83
2022/06/11 04:48:40;;;;;;;2.35;1.60;;;;;;;;;;7391305;19;20295;-83
2022/06/11 04:51:07;;;;;;;4.22;1.83;;;;;;;;;;7389957;19;20007;-84
2022/06/11 04:53:32;;;;;;;2.08;1.42;;;;;;;;;;7394829;19;20010;-83
2022/06/11 04:55:58;;;;;;;2.60;1.50;;;;;;;;;;7393310;19;20307;-83
2022/06/11 04:58:23;;;;;;;2.15;1.95;;;;;;;;;;7393765;19;20342;-83
2022/06/11 05:00:50;;;;;;;2.30;1.77;;;;;;;;;;7391610;19;20007;-84
2022/06/11 05:03:15;;;;;;;2.15;1.88;;;;;;;;;;7386492;19;20464;-85
2022/06/11 05:05:41;;;;;;;2.50;1.95;;;;;;;;;;7395686;19;20586;-85
2022/06/11 05:08:07;;;;;;;2.03;1.73;;;;;;;;;;7389947;19;20010;-85
2022/06/11 05:10:37;;;;;;;3.95;1.85;;;;;;;;;;7391726;19;20046;-83
2022/06/11 05:13:13;;;;;;;4.57;2.20;;;;;;;;;;7389723;19;20073;-83
2022/06/11 05:15:43;;;;;;;5.53;2.15;;;;;;;;;;7392190;19;20394;-83
2022/06/11 05:18:10;;;;;;;3.63;2.08;;;;;;;;;;7391558;19;20375;-83
2022/06/11 05:20:36;;;;;;;2.53;2.00;;;;;;;;;;7391825;19;20066;-85
2022/06/11 05:23:01;;;;;;;3.40;1.65;;;;;;;;;;7390262;19;20053;-85
2022/06/11 05:25:27;;;;;;;2.65;1.67;;;;;;;;;;7392502;19;20074;-84
2022/06/11 05:27:54;;;;;;;5.05;1.80;;;;;;;;;;7389892;19;20011;-84
2022/06/11 05:30:23;;;;;;;2.85;2.17;;;;;;;;;;7392699;19;20015;-84
2022/06/11 05:32:49;;;;;;;1.83;1.58;;;;;;;;;;7389330;19;20019;-84
2022/06/11 05:35:19;;;;;;;2.28;1.98;;;;;;;;;;7389341;19;20007;-83
2022/06/11 05:37:53;;;;;;;2.22;1.60;;;;;;;;;;7388768;19;20014;-85
2022/06/11 05:40:24;;;;;;;3.17;1.70;;;;;;;;;;7389501;19;20037;-84
2022/06/11 05:42:54;;;;;;;1.60;1.50;;;;;;;;;;7388876;19;20006;-85
2022/06/11 05:45:30;;;;;;;5.20;1.70;;;;;;;;;;7389202;19;20260;-83
2022/06/11 05:47:56;;;;;;;2.95;2.08;;;;;;;;;;7388725;19;20066;-83
2022/06/11 05:50:28;;;;;;;4.88;1.70;;;;;;;;;;7390180;19;20009;-84
2022/06/11 05:52:58;;;;;;;1.85;1.40;;;;;;;;;;7392965;19;20448;-85
2022/06/11 05:55:30;;;;;;;2.90;1.73;;;;;;;;;;7391777;19;19999;-83
2022/06/11 05:58:00;;;;;;;4.00;1.75;;;;;;;;;;7388299;19;20017;-84
2022/06/11 06:00:26;;;;;;;3.42;1.60;;;;;;;;;;7392137;19;20002;-84
2022/06/11 06:02:51;;;;;;;2.22;1.80;;;;;;;;;;7387092;19;20019;-84
2022/06/11 06:05:25;;;;;;;1.70;1.50;;;;;;;;;;7391471;19;20059;-83
2022/06/11 06:07:51;;;;;;;1.95;1.58;;;;;;;;;;7388424;19;20014;-83
2022/06/11 06:10:16;;;;;;;1.95;1.58;;;;;;;;;;7389974;19;20117;-84
2022/06/11 06:12:42;;;;;;;1.98;1.73;;;;;;;;;;7392038;19;19998;-84
2022/06/11 06:15:13;;;;;;;1.73;1.35;;;;;;;;;;7391349;19;20025;-84
2022/06/11 06:17:40;;;;;;;6.63;2.10;;;;;;;;;;7387016;19;20032;-84
2022/06/11 06:20:08;;;;;;;2.00;1.38;;;;;;;;;;7386537;19;20022;-83
2022/06/11 06:22:34;;;;;;;2.30;1.50;;;;;;;;;;7392374;19;20513;-83
2022/06/11 06:25:00;;;;;;;3.63;1.90;;;;;;;;;;7387178;19;20002;-84
2022/06/11 06:27:25;;;;;;;3.13;1.50;;;;;;;;;;7385990;19;20481;-83
2022/06/11 06:29:51;;;;;;;2.65;1.52;;;;;;;;;;7383548;19;20010;-84
2022/06/11 06:32:16;;;;;;;1.73;1.33;;;;;;;;;;7388761;19;20044;-84
2022/06/11 06:34:42;;;;;;;2.20;1.50;;;;;;;;;;7389845;19;20002;-84
2022/06/11 06:37:07;;;;;;;1.95;1.23;;;;;;;;;;7387828;19;20288;-84
2022/06/11 06:39:34;;;;;;;4.85;1.55;;;;;;;;;;7386351;19;20022;-84
2022/06/11 06:42:00;;;;;;;1.50;1.38;;;;;;;;;;7388608;19;20489;-84
2022/06/11 06:44:35;;;;;;;2.75;1.67;;;;;;;;;;7388853;19;20022;-83
2022/06/11 06:47:00;;;;;;;3.30;1.63;;;;;;;;;;7389078;19;20051;-83
2022/06/11 06:52:17;;;;;;;1.73;1.58;;;;;;;;;;7390125;19;20541;-84
2022/06/11 06:54:43;;;;;;;2.53;1.42;;;;;;;;;;7389342;19;19994;-84
2022/06/11 06:57:14;;;;;;;6.30;2.05;;;;;;;;;;7397447;19;19999;-84
2022/06/11 06:59:40;;;;;;;3.25;1.55;;;;;;;;;;7397475;19;19995;-84
2022/06/11 07:02:05;;;;;;;2.10;1.35;;;;;;;;;;7393907;19;20085;-85
2022/06/11 07:04:31;;;;;;;2.72;1.40;;;;;;;;;;7394658;19;20014;-83
2022/06/11 07:07:00;;;;;;;2.55;1.63;;;;;;;;;;7397709;19;20037;-84
2022/06/11 07:09:25;;;;;;;1.38;1.25;;;;;;;;;;7390088;19;20014;-84
2022/06/11 07:11:51;;;;;;;2.40;1.58;;;;;;;;;;7395619;19;20431;-84
2022/06/11 07:14:16;;;;;;;3.78;1.50;;;;;;;;;;7394067;19;19998;-84
2022/06/11 07:16:48;;;;;;;2.90;1.85;;;;;;;;;;7390756;19;21258;-85
2022/06/11 07:19:18;;;;;;;2.03;1.35;;;;;;;;;;7394275;19;20069;-85
2022/06/11 07:21:49;;;;;;;2.03;1.40;;;;;;;;;;7396767;19;19995;-84
2022/06/11 07:24:18;;;;;;;1.40;1.30;;;;;;;;;;7393452;19;20082;-84
2022/06/11 07:26:49;;;;;;;2.42;1.88;;;;;;;;;;7392094;19;20457;-84
2022/06/11 07:29:20;;;;;;;1.85;1.30;;;;;;;;;;7394884;19;20019;-84
2022/06/11 07:31:49;;;;;;;1.60;1.40;;;;;;;;;;7395720;19;20014;-84
2022/06/11 07:34:15;;;;;;;3.45;1.45;;;;;;;;;;7395978;19;20395;-84
2022/06/11 07:36:41;;;;;;;1.73;1.52;;;;;;;;;;7394567;19;20099;-84
2022/06/11 07:39:12;;;;;;;3.10;1.40;;;;;;;;;;7392394;19;20014;-84
2022/06/11 07:41:50;;;;;;;2.15;1.30;;;;;;;;;;7395510;19;20318;-85
2022/06/11 07:44:20;;;;;;;2.33;1.20;;;;;;;;;;7390418;19;20002;-85
2022/06/11 07:46:45;;;;;;;1.60;1.50;;;;;;;;;;7396127;19;20023;-85
2022/06/11 07:49:10;;;;;;;1.77;1.20;;;;;;;;;;7390095;19;20029;-85
2022/06/11 07:51:36;;;;;;;1.67;0.95;;;;;;;;;;7395283;19;20045;-84
2022/06/11 07:54:02;;;;;;;1.73;1.17;;;;;;;;;;7390282;19;20007;-85
2022/06/11 07:56:27;;;;;;;1.10;1.00;;;;;;;;;;7394438;19;20033;-85
2022/06/11 07:58:52;;;;;;;3.13;1.20;;;;;;;;;;7394696;19;19995;-84
2022/06/11 08:01:19;;;;;;;2.85;1.45;;;;;;;;;;7390006;19;19998;-84
2022/06/11 08:03:44;;;;;;;3.15;1.38;;;;;;;;;;7394232;19;20026;-83
2022/06/11 08:06:10;;;;;;;3.78;0.98;;;;;;;;;;7390057;19;20539;-85
2022/06/11 08:08:35;;;;;;;2.03;1.02;;;;;;;;;;7394893;19;20002;-85
2022/06/11 08:11:03;;;;;;;1.20;1.00;;;;;;;;;;7388521;19;20126;-84
2022/06/11 08:13:28;;;;;;;1.38;1.05;;;;;;;;;;7394290;19;20031;-84
2022/06/11 08:15:54;;;;;;;3.00;1.00;;;;;;;;;;7391102;19;20002;-85
2022/06/11 08:18:22;;;;;;;1.67;1.17;;;;;;;;;;7390776;19;20010;-84
2022/06/11 08:20:50;;;;;;;2.38;1.00;;;;;;;;;;7392989;19;20091;-84
2022/06/11 08:23:20;;;;;;;1.85;1.08;;;;;;;;;;7391467;19;20021;-85
2022/06/11 08:25:46;;;;;;;2.05;1.00;;;;;;;;;;7392988;19;20465;-84
2022/06/11 08:28:13;;;;;;;0.98;0.80;;;;;;;;;;7391503;19;20009;-84
2022/06/11 08:30:40;;;;;;;1.17;1.08;;;;;;;;;;7388563;19;20340;-85
2022/06/11 08:33:07;;;;;;;1.33;0.80;;;;;;;;;;7389692;19;20437;-84
2022/06/11 08:35:34;;;;;;;0.85;0.63;;;;;;;;;;7393885;19;20038;-84
2022/06/11 08:38:00;;;;;;;1.05;0.70;;;;;;;;;;7390417;19;20014;-84
2022/06/11 08:40:30;;;;;;;2.35;1.30;;;;;;;;;;7391593;19;20011;-85
2022/06/11 08:43:24;;;;;;;1.17;0.90;;;;;;;;;;7396196;19;20002;-84
2022/06/11 08:45:59;;;;;;;1.00;0.77;;;;;;;;;;7391918;19;20447;-84
2022/06/11 08:48:31;;;;;;;1.10;1.00;;;;;;;;;;7389803;19;20015;-85
2022/06/11 08:51:15;;;;;;;1.00;0.85;;;;;;;;;;7391005;19;19998;-84
2022/06/11 08:53:41;;;;;;;0.90;0.90;;;;;;;;;;7391472;19;20504;-85
2022/06/11 08:56:27;;;;;;;2.25;0.80;;;;;;;;;;7393643;19;20017;-85
2022/06/11 08:59:15;;;;;;;1.77;0.88;;;;;;;;;;7390490;19;20472;-85
2022/06/11 09:02:18;;;;;;;2.45;0.85;;;;;;;;;;7388184;19;20341;-84
2022/06/11 09:05:11;;;;;;;3.95;0.90;;;;;;;;;;7386367;19;20014;-85
2022/06/11 09:07:56;;;;;;;3.22;0.95;;;;;;;;;;7394250;19;20039;-87
2022/06/11 09:10:41;;;;;;;8.48;1.17;;;;;;;;;;7388403;19;20011;-83
2022/06/11 09:13:44;;;;;;;3.83;0.90;;;;;;;;;;7388285;19;19995;-83
2022/06/11 09:16:57;;;;;;;0.98;0.75;;;;;;;;;;7386294;19;20006;-84
2022/06/11 09:19:52;;;;;;;2.30;0.70;;;;;;;;;;7389387;19;20021;-84
2022/06/11 09:22:38;;;;;;;1.33;0.80;;;;;;;;;;7393364;19;20034;-84
2022/06/11 09:25:39;;;;;;;1.90;1.00;;;;;;;;;;7395464;19;20011;-84
2022/06/11 09:28:24;;;;;;;1.30;0.80;;;;;;;;;;7393549;19;20050;-85
2022/06/11 09:31:10;;;;;;;2.00;1.00;;;;;;;;;;7393994;19;20398;-84
2022/06/11 09:33:43;;;;;;;0.98;0.88;;;;;;;;;;7393237;19;20363;-84
2022/06/11 09:36:21;;;;;;;1.40;0.80;;;;;;;;;;7392009;19;20007;-84
2022/06/11 09:39:15;;;;;;;1.90;1.00;;;;;;;;;;7390722;19;20030;-85
2022/06/11 09:41:53;;;;;;;3.75;1.20;;;;;;;;;;7394240;19;20594;-85
2022/06/11 09:44:49;;;;;;;1.17;0.80;;;;;;;;;;7391837;19;20003;-84
2022/06/11 09:47:56;;;;;;;0.90;0.70;;;;;;;;;;7389223;19;20470;-83
2022/06/11 09:50:35;;;;;;;3.17;1.00;;;;;;;;;;7391243;19;20416;-85
2022/06/11 09:53:15;;;;;;;0.82;0.80;;;;;;;;;;7392160;19;20005;-85
2022/06/11 09:55:49;;;;;;;1.30;0.65;;;;;;;;;;7388892;19;20058;-85
2022/06/11 09:59:13;;;;;;;0.93;0.70;;;;;;;;;;7389913;19;20006;-85
2022/06/11 10:01:44;;;;;;;1.75;0.82;;;;;;;;;;7387345;19;20607;-86
2022/06/11 10:04:12;;;;;;;1.38;0.70;;;;;;;;;;7385076;19;20628;-85
2022/06/11 10:07:01;;;;;;;2.22;0.82;;;;;;;;;;7392957;19;19999;-86
2022/06/11 10:09:38;;;;;;;1.95;0.60;;;;;;;;;;7389821;19;20344;-85
2022/06/11 10:12:13;;;;;;;1.63;1.25;;;;;;;;;;7387856;19;20370;-84
2022/06/11 10:15:19;;;;;;;3.65;0.90;;;;;;;;;;7392462;19;20343;-85
2022/06/11 10:18:02;;;;;;;0.60;0.60;;;;;;;;;;7392359;19;20504;-85
2022/06/11 10:20:42;;;;;;;3.10;1.08;;;;;;;;;;7391626;19;20010;-84
2022/06/11 10:23:42;;;;;;;2.80;1.02;;;;;;;;;;7387783;19;20006;-83
2022/06/11 10:26:32;;;;;;;2.80;1.00;;;;;;;;;;7391775;19;20020;-84
2022/06/11 10:29:08;;;;;;;0.95;0.80;;;;;;;;;;7386649;19;20010;-84
2022/06/11 10:31:44;;;;;;;0.75;0.60;;;;;;;;;;7393441;19;20026;-85
2022/06/11 10:34:24;;;;;;;0.73;0.60;;;;;;;;;;7387950;19;20541;-85
2022/06/11 10:37:13;;;;;;;1.33;0.80;;;;;;;;;;7391509;19;19995;-84
2022/06/11 10:39:48;;;;;;;0.60;0.60;;;;;;;;;;7389098;19;20018;-84
2022/06/11 10:42:39;;;;;;;1.13;0.75;;;;;;;;;;7392846;19;20105;-85
2022/06/11 10:45:04;;;;;;;1.30;0.70;;;;;;;;;;7393965;19;20477;-84
2022/06/11 10:47:35;;;;;;;1.08;0.68;;;;;;;;;;7386395;19;20031;-84
2022/06/11 10:50:11;;;;;;;1.50;1.00;;;;;;;;;;7390757;19;20495;-84
2022/06/11 10:52:44;;;;;;;0.80;0.70;;;;;;;;;;7391715;19;20006;-84
2022/06/11 10:55:17;;;;;;;1.45;0.68;;;;;;;;;;7393308;19;20010;-85
2022/06/11 10:57:46;;;;;;;0.98;0.80;;;;;;;;;;7392266;19;20122;-85
2022/06/11 11:00:19;;;;;;;2.97;0.60;;;;;;;;;;7388196;19;20039;-85
2022/06/11 11:02:50;;;;;;;0.85;0.50;;;;;;;;;;7393307;19;20002;-84
2022/06/11 11:05:20;;;;;;;1.13;0.73;;;;;;;;;;7388373;19;20014;-83
2022/06/11 11:07:55;;;;;;;1.17;0.73;;;;;;;;;;7388293;19;20505;-85
2022/06/11 11:10:35;;;;;;;2.17;0.60;;;;;;;;;;7382063;19;20003;-84
2022/06/11 11:15:59;;;;;;;2.22;0.80;;;;;;;;;;7387914;19;20349;-84
2022/06/11 11:18:51;;;;;;;1.60;0.60;;;;;;;;;;7388619;19;20023;-85
2022/06/11 11:21:48;;;;;;;0.75;0.55;;;;;;;;;;7385571;19;20017;-84
2022/06/11 11:24:18;;;;;;;1.23;0.63;;;;;;;;;;7387415;19;20086;-84
2022/06/11 11:27:04;;;;;;;1.42;0.63;;;;;;;;;;7387890;19;20017;-84
2022/06/11 11:29:35;;;;;;;0.68;0.60;;;;;;;;;;7387307;19;20647;-85
2022/06/11 11:32:29;;;;;;;0.60;0.60;;;;;;;;;;7385455;19;20035;-84
2022/06/11 11:34:54;;;;;;;0.60;0.60;;;;;;;;;;7384696;19;19999;-84
2022/06/11 11:37:31;;;;;;;0.85;0.70;;;;;;;;;;7387544;19;20137;-85
2022/06/11 11:40:02;;;;;;;0.65;0.60;;;;;;;;;;7381990;19;20466;-84
2022/06/11 11:42:39;;;;;;;0.73;0.73;;;;;;;;;;7391691;19;20017;-85
2022/06/11 11:45:21;;;;;;;0.80;0.50;;;;;;;;;;7392891;19;20042;-85
2022/06/11 11:48:03;;;;;;;0.80;0.70;;;;;;;;;;7392338;19;20015;-84
2022/06/11 11:50:35;;;;;;;0.50;0.50;;;;;;;;;;7389201;19;20511;-85
2022/06/11 11:53:34;;;;;;;0.50;0.50;;;;;;;;;;7393121;19;20013;-84
2022/06/11 11:56:03;;;;;;;0.40;0.40;;;;;;;;;;7393247;19;20011;-84
2022/06/11 11:58:37;;;;;;;1.17;0.63;;;;;;;;;;7393443;19;19999;-85
2022/06/11 12:01:29;;;;;;;1.63;0.80;;;;;;;;;;7387422;19;20021;-85
2022/06/11 12:04:10;;;;;;;0.65;0.47;;;;;;;;;;7393205;19;20005;-85
2022/06/11 12:06:42;;;;;;;3.25;0.57;;;;;;;;;;7391840;19;20026;-84
2022/06/11 12:09:30;;;;;;;1.83;0.60;;;;;;;;;;7390237;19;19999;-85
2022/06/11 12:12:09;;;;;;;0.52;0.50;;;;;;;;;;7391991;19;20001;-85
2022/06/11 12:14:49;;;;;;;0.40;0.40;;;;;;;;;;7392190;19;20006;-85
2022/06/11 12:17:34;;;;;;;1.05;0.60;;;;;;;;;;7390481;19;20010;-85
2022/06/11 12:20:04;;;;;;;1.80;0.50;;;;;;;;;;7392377;19;20013;-85
2022/06/11 12:22:56;;;;;;;2.63;0.60;;;;;;;;;;7391999;19;20005;-85
2022/06/11 12:25:52;;;;;;;0.82;0.45;;;;;;;;;;7387202;19;20423;-85
2022/06/11 12:28:33;;;;;;;0.68;0.60;;;;;;;;;;7394161;19;20031;-86
2022/06/11 12:30:59;;;;;;;1.70;0.57;;;;;;;;;;7387425;19;19995;-85
2022/06/11 12:33:43;;;;;;;1.02;0.50;;;;;;;;;;7388839;19;20109;-86
2022/06/11 12:36:38;;;;;;;1.98;0.75;;;;;;;;;;7391737;19;20411;-85
2022/06/11 12:39:26;;;;;;;0.77;0.60;;;;;;;;;;7390782;19;20067;-85
2022/06/11 12:42:27;;;;;;;2.97;0.52;;;;;;;;;;7392680;19;20303;-85
2022/06/11 12:45:21;;;;;;;1.33;0.55;;;;;;;;;;7392308;19;19994;-85
2022/06/11 12:48:11;;;;;;;1.88;0.60;;;;;;;;;;7393470;19;20017;-85
2022/06/11 12:54:48;;;;;;;1.20;0.55;;;;;;;;;;7390633;19;19986;-85
2022/06/11 12:57:45;;;;;;;6.32;0.60;;;;;;;;;;7391129;19;19995;-85
2022/06/11 13:00:16;;;;;;;0.77;0.40;;;;;;;;;;7392669;19;20081;-85
2022/06/11 13:03:29;;;;;;;0.80;0.52;;;;;;;;;;7396502;19;20022;-85
2022/06/11 13:06:01;;;;;;;0.40;0.40;;;;;;;;;;7387832;19;20099;-85
2022/06/11 13:08:45;;;;;;;1.15;0.60;;;;;;;;;;7392484;19;20050;-86
2022/06/11 13:11:31;;;;;;;1.77;0.60;;;;;;;;;;7388826;19;19998;-85
2022/06/11 13:14:43;;;;;;;0.50;0.50;;;;;;;;;;7390867;19;20254;-86
2022/06/11 13:17:42;;;;;;;0.45;0.45;;;;;;;;;;7392611;19;20082;-85
2022/06/11 13:20:13;;;;;;;1.52;0.47;;;;;;;;;;7389855;19;20082;-85
2022/06/11 13:23:07;;;;;;;0.85;0.50;;;;;;;;;;7391424;19;20123;-85
2022/06/11 13:25:39;;;;;;;0.63;0.40;;;;;;;;;;7386804;19;20013;-85
2022/06/11 13:28:44;;;;;;;1.73;0.50;;;;;;;;;;7389735;19;20019;-86
2022/06/11 13:31:35;;;;;;;0.60;0.60;;;;;;;;;;7389212;19;19998;-85
2022/06/11 13:34:29;;;;;;;1.05;0.50;;;;;;;;;;7386374;19;19998;-87
2022/06/11 13:37:28;;;;;;;0.50;0.50;;;;;;;;;;7389790;19;20035;-83
2022/06/11 13:40:12;;;;;;;1.13;0.60;;;;;;;;;;7389644;19;20018;-86
2022/06/11 13:43:08;;;;;;;0.55;0.55;;;;;;;;;;7392601;19;20469;-85
2022/06/11 13:46:19;;;;;;;1.55;0.65;;;;;;;;;;7387246;19;20058;-86
2022/06/11 13:49:33;;;;;;;1.70;0.40;;;;;;;;;;7387281;19;20567;-86
2022/06/11 13:55:10;;;;;;;1.30;0.68;;;;;;;;;;7391652;19;20017;-87
2022/06/11 13:55:22;;;;;;;0.50;0.50;;;;;;;;;;7387238;19;20003;-86
2022/06/11 13:58:25;;;;;;;1.15;0.60;;;;;;;;;;7387609;19;20039;-85
2022/06/11 14:01:28;;;;;;;1.00;0.60;;;;;;;;;;7388708;19;20019;-85
2022/06/11 14:04:15;;;;;;;0.60;0.55;;;;;;;;;;7386099;19;20021;-85
2022/06/11 14:06:42;;;;;;;0.50;0.50;;;;;;;;;;7388161;19;20315;-86
2022/06/11 14:12:02;;;;;;;0.47;0.47;;;;;;;;;;7388937;19;20608;-85
2022/06/11 14:14:41;;;;;;;0.77;0.60;;;;;;;;;;7393022;19;19991;-85
2022/06/11 14:17:38;;;;;;;1.65;0.57;;;;;;;;;;7385996;19;20014;-86
2022/06/11 14:20:20;;;;;;;0.80;0.55;;;;;;;;;;7386214;19;20038;-85
2022/06/11 14:22:52;;;;;;;1.60;0.52;;;;;;;;;;7387076;19;20070;-85
2022/06/11 14:25:40;;;;;;;1.85;0.60;;;;;;;;;;7389446;19;20019;-85
2022/06/11 14:28:22;;;;;;;0.60;0.60;;;;;;;;;;7390021;19;20026;-86
2022/06/11 14:30:48;;;;;;;0.40;0.40;;;;;;;;;;7386782;19;20023;-85
2022/06/11 14:33:13;;;;;;;1.35;0.68;;;;;;;;;;7387555;19;20362;-86
2022/06/11 14:35:48;;;;;;;1.50;0.57;;;;;;;;;;7388099;19;20010;-86
2022/06/11 14:38:50;;;;;;;0.60;0.52;;;;;;;;;;7387921;19;20440;-85
2022/06/11 14:41:43;;;;;;;0.60;0.55;;;;;;;;;;7383759;19;20036;-85
2022/06/11 14:44:18;;;;;;;0.60;0.60;;;;;;;;;;7387844;19;20011;-87
2022/06/11 14:47:12;;;;;;;1.42;0.80;;;;;;;;;;7386209;19;20015;-87
2022/06/11 14:49:48;;;;;;;0.75;0.65;;;;;;;;;;7389763;19;20014;-85
2022/06/11 14:52:15;;;;;;;1.55;0.77;;;;;;;;;;7390194;19;20013;-87
2022/06/11 14:54:44;;;;;;;0.90;0.80;;;;;;;;;;7385567;19;20125;-86
2022/06/11 14:57:30;;;;;;;1.30;0.60;;;;;;;;;;7386956;19;20402;-86
2022/06/11 15:00:33;;;;;;;1.83;0.57;;;;;;;;;;7384465;19;20091;-88
2022/06/11 15:03:28;;;;;;;0.85;0.77;;;;;;;;;;7387568;19;20014;-86
2022/06/11 15:06:15;;;;;;;2.72;1.17;;;;;;;;;;7387306;19;20014;-87
2022/06/11 15:09:09;;;;;;;1.23;0.70;;;;;;;;;;7385162;19;20018;-87
2022/06/11 15:12:10;;;;;;;0.82;0.80;;;;;;;;;;7385256;19;20018;-86
2022/06/11 15:15:12;;;;;;;1.17;0.70;;;;;;;;;;7382086;19;20021;-86
2022/06/11 15:17:50;;;;;;;0.95;0.80;;;;;;;;;;7390951;19;20027;-87
2022/06/11 15:20:34;;;;;;;0.90;0.50;;;;;;;;;;7394976;19;19995;-87
2022/06/11 15:23:21;;;;;;;0.90;0.70;;;;;;;;;;7392561;19;20005;-87
2022/06/11 15:25:49;;;;;;;0.52;0.50;;;;;;;;;;7393264;19;19994;-87
2022/06/11 15:28:20;;;;;;;0.70;0.60;;;;;;;;;;7393390;19;20018;-86
2022/06/11 15:30:46;;;;;;;1.30;0.80;;;;;;;;;;7391852;19;20075;-86
2022/06/11 15:33:11;;;;;;;0.82;0.70;;;;;;;;;;7395196;19;20193;-87
2022/06/11 15:36:10;;;;;;;0.98;0.63;;;;;;;;;;7393044;19;20006;-87
2022/06/11 15:38:59;;;;;;;0.60;0.60;;;;;;;;;;7394049;19;20066;-86
2022/06/11 15:41:32;;;;;;;0.50;0.50;;;;;;;;;;7391240;19;20472;-86
2022/06/11 15:44:06;;;;;;;3.40;0.90;;;;;;;;;;7393979;19;20002;-90
2022/06/11 15:46:40;;;;;;;2.35;1.90;;;;;;;;;;7391433;19;20014;-88